Weather at Namsos Høknesøra Airport

Public forecast

Using degrees Celsius for public forecast. Weather courtesy of forecast.io.

Current aviation weather report (METAR) for Namsos Høknesøra Airport

Report is more than 6 hours old.

Retrieved 2021/01/25 19:50 UTC (6 hours ago):

ENNM 251950Z 05015KT 9999 BKN025 M08/M10 Q1003

Closest aviation forecast (TAF) to Namsos Høknesøra Airport

Closest forecast is Trondheim Airport Værnes, 63.3 nm (117.2 km) SSW. Retrieved 2021-01-26 00:56 UTC (58 minutes ago):

TAF ENVA 252300Z 2600/2624 10008KT 9999 SCT030 BKN050 PROB30 TEMPO 2609/2624 2000 SHSN VV007